CheckWX is a tool to help pilots better visualize weather data.  It is not intended as a substitute for an official pre-flight weather briefing.

20:53:53 UTC

KHYA METAR
Barnstable Municipal-Boardman / Polando Field Airport
Hyannis, Massachusetts, USA
Current

58 mins ago

KHYA 131956Z 13005KT 10SM SCT015 OVC060 08/05 A3035 RMK AO2 SLP280 T00830050
Observed
Dec-13 @ 19:56 UTC
Wind
  • 130° at 5 KTS
Visibility
10 SM
Flight Rules
VFR
Cloud Levels
  • Scattered at 1,500' AGL
  • Overcast at 6,000' AGL
Temperature
C / 46°F
Dewpoint
C / 41°F
Humidity
82%
Altimeter
30.35" Hg
Pressure
1027.82 hPa
Previous

2 hours ago

KHYA 131903Z VRB06KT 10SM BKN019 OVC060 08/04 A3035 RMK AO2 T00830044
Observed
Dec-13 @ 19:03 UTC
Wind
  • Variable at 6 KTS
Visibility
10 SM
Flight Rules
MVFR
Cloud Levels
  • Broken at 1,900' AGL
  • Overcast at 6,000' AGL
Temperature
C / 46°F
Dewpoint
C / 39°F
Humidity
76%
Altimeter
30.35" Hg
Pressure
1027.82 hPa
Previous

2 hours ago

KHYA 131856Z 11006KT 10SM SCT019 08/04 A3035 RMK AO2 SLP281 T00830044
Observed
Dec-13 @ 18:56 UTC
Wind
  • 110° at 6 KTS
Visibility
10 SM
Flight Rules
VFR
Cloud Levels
  • Scattered at 1,900' AGL
Temperature
C / 46°F
Dewpoint
C / 39°F
Humidity
76%
Altimeter
30.35" Hg
Pressure
1027.82 hPa